createdAt,value
2019-02-16T00:01:09.147Z,11.47
2019-02-16T00:03:39.513Z,9.07
2019-02-16T00:06:09.968Z,9.87
2019-02-16T00:08:40.210Z,9.80
2019-02-16T00:11:10.529Z,12.60
2019-02-16T00:13:40.808Z,9.87
2019-02-16T00:16:11.133Z,8.23
2019-02-16T00:18:41.688Z,8.10
2019-02-16T00:21:11.997Z,6.73
2019-02-16T00:23:42.350Z,9.27
2019-02-16T00:26:12.644Z,8.43
2019-02-16T00:28:42.881Z,9.50
2019-02-16T00:31:13.158Z,10.17
2019-02-16T00:33:43.442Z,10.80
2019-02-16T00:36:14.689Z,10.77
2019-02-16T00:38:44.901Z,8.60
2019-02-16T00:41:15.164Z,8.77
2019-02-16T00:43:45.418Z,9.63
2019-02-16T00:46:15.688Z,9.93
2019-02-16T00:48:45.899Z,8.07
2019-02-16T00:51:16.126Z,8.53
2019-02-16T00:53:46.371Z,8.00
2019-02-16T00:56:16.664Z,10.33
2019-02-16T00:58:46.890Z,10.03
2019-02-16T01:01:17.148Z,8.57
2019-02-16T01:03:47.351Z,9.20
2019-02-16T01:06:17.669Z,9.40
2019-02-16T01:08:48.067Z,10.47
2019-02-16T01:11:18.368Z,8.50
2019-02-16T01:13:48.638Z,8.27
2019-02-16T01:16:18.955Z,10.27
2019-02-16T01:18:49.226Z,10.73
2019-02-16T01:21:22.875Z,9.27
2019-02-16T01:23:51.401Z,9.80
2019-02-16T01:26:21.666Z,9.10
2019-02-16T01:28:52.204Z,8.07
2019-02-16T01:31:22.514Z,10.17
2019-02-16T01:33:53.154Z,6.90
2019-02-16T01:36:26.136Z,7.83
2019-02-16T01:38:56.701Z,9.07
2019-02-16T01:41:26.944Z,9.20
2019-02-16T01:43:57.601Z,10.57
2019-02-16T01:46:27.790Z,8.83
2019-02-16T01:48:58.173Z,8.50
2019-02-16T01:51:31.938Z,10.10
2019-02-16T01:54:00.364Z,9.17
2019-02-16T01:56:30.703Z,10.50
2019-02-16T01:59:01.016Z,10.97
2019-02-16T02:01:31.258Z,9.40
2019-02-16T02:04:01.612Z,9.17
2019-02-16T02:06:31.893Z,12.70
2019-02-16T02:09:02.203Z,12.23
2019-02-16T02:11:34.171Z,8.90
2019-02-16T02:14:04.466Z,9.10
2019-02-16T02:16:34.715Z,10.37
2019-02-16T02:19:05.003Z,8.27
2019-02-16T02:21:41.148Z,12.83
2019-02-16T02:24:07.350Z,10.37
2019-02-16T02:26:38.548Z,9.33
2019-02-16T02:29:08.951Z,9.00
2019-02-16T02:31:39.654Z,9.83
2019-02-16T02:34:09.921Z,8.33
2019-02-16T02:36:40.126Z,11.13
2019-02-16T02:39:10.366Z,9.60
2019-02-16T02:41:40.701Z,9.83
2019-02-16T02:44:10.991Z,11.77
2019-02-16T02:46:41.266Z,8.47
2019-02-16T02:49:11.493Z,8.47
2019-02-16T02:51:51.507Z,10.93
2019-02-16T02:54:13.670Z,11.10
2019-02-16T02:56:44.048Z,9.67
2019-02-16T02:59:14.312Z,10.37
2019-02-16T03:01:44.682Z,9.10
2019-02-16T03:04:16.554Z,13.03
2019-02-16T03:06:46.814Z,10.07
2019-02-16T03:09:18.677Z,10.00
2019-02-16T03:11:48.978Z,12.83
2019-02-16T03:14:20.361Z,9.57
2019-02-16T03:16:50.641Z,7.93
2019-02-16T03:19:20.893Z,9.57
2019-02-16T03:21:51.221Z,10.43
2019-02-16T03:24:21.474Z,11.57
2019-02-16T03:27:28.424Z,10.47
2019-02-16T03:31:03.058Z,11.17
2019-02-16T03:34:06.072Z,8.87
2019-02-16T03:37:16.212Z,10.47
2019-02-16T03:39:47.312Z,10.67
2019-02-16T03:42:17.669Z,11.23
2019-02-16T03:44:47.891Z,10.93
2019-02-16T03:47:18.214Z,13.13
2019-02-16T03:49:48.439Z,13.73
2019-02-16T03:52:18.891Z,11.43
2019-02-16T03:54:52.219Z,10.03
2019-02-16T03:57:22.458Z,11.57
2019-02-16T03:59:52.690Z,12.33
2019-02-16T04:02:22.960Z,11.97
2019-02-16T04:04:53.220Z,10.90
2019-02-16T04:07:23.475Z,12.07
2019-02-16T04:09:53.853Z,10.60
2019-02-16T04:12:24.101Z,11.33
2019-02-16T04:14:54.296Z,12.30
2019-02-16T04:17:24.646Z,11.63
2019-02-16T04:19:55.042Z,13.53
2019-02-16T04:22:25.268Z,13.27
2019-02-16T04:24:55.587Z,12.80
2019-02-16T04:27:25.742Z,11.50
2019-02-16T04:29:56.173Z,12.37
2019-02-16T04:32:26.410Z,11.67
2019-02-16T04:34:56.679Z,13.70
2019-02-16T04:37:26.929Z,12.00
2019-02-16T04:39:57.282Z,13.03
2019-02-16T04:42:27.578Z,11.70
2019-02-16T04:44:57.839Z,11.67
2019-02-16T04:47:28.157Z,13.07
2019-02-16T04:49:58.678Z,11.60
2019-02-16T04:52:34.651Z,13.10
2019-02-16T04:55:00.978Z,12.63
2019-02-16T04:57:31.263Z,11.63
2019-02-16T05:00:01.619Z,12.43
2019-02-16T05:02:31.918Z,10.00
2019-02-16T05:05:02.163Z,13.63
2019-02-16T05:07:32.555Z,13.50
2019-02-16T05:10:02.791Z,13.57
2019-02-16T05:12:33.047Z,14.13
2019-02-16T05:15:03.380Z,11.70
2019-02-16T05:17:34.699Z,12.97
2019-02-16T05:20:05.314Z,10.40
2019-02-16T05:22:44.209Z,13.57
2019-02-16T05:25:07.739Z,13.40
2019-02-16T05:27:38.032Z,12.67
2019-02-16T05:30:09.425Z,11.27
2019-02-16T05:32:40.083Z,11.33
2019-02-16T05:35:10.306Z,14.43
2019-02-16T05:37:40.601Z,12.17
2019-02-16T05:40:10.834Z,15.97
2019-02-16T05:42:41.355Z,15.80
2019-02-16T05:45:13.607Z,11.10
2019-02-16T05:47:43.920Z,11.50
2019-02-16T05:50:14.506Z,12.23
2019-02-16T05:52:53.777Z,14.73
2019-02-16T05:55:16.785Z,12.83
2019-02-16T05:57:47.220Z,13.13
2019-02-16T06:00:19.052Z,12.53
2019-02-16T06:02:49.280Z,11.27
2019-02-16T06:05:19.711Z,14.10
2019-02-16T06:07:50.121Z,12.93
2019-02-16T06:10:20.358Z,14.37
2019-02-16T06:12:50.631Z,12.90
2019-02-16T06:15:20.909Z,13.73
2019-02-16T06:17:51.203Z,12.43
2019-02-16T06:20:21.421Z,12.20
2019-02-16T06:22:51.684Z,12.60
2019-02-16T06:25:21.946Z,13.57
2019-02-16T06:27:52.263Z,13.67
2019-02-16T06:30:22.495Z,15.40
2019-02-16T06:32:53.127Z,14.17
2019-02-16T06:35:28.932Z,13.43
2019-02-16T06:38:00.225Z,11.87
2019-02-16T06:40:30.569Z,12.90
2019-02-16T06:43:00.895Z,12.50
2019-02-16T06:45:31.155Z,12.97
2019-02-16T06:48:02.336Z,13.23
2019-02-16T06:50:37.035Z,15.40
2019-02-16T06:53:12.871Z,13.37
2019-02-16T06:55:51.675Z,13.63
2019-02-16T06:58:21.940Z,14.77
2019-02-16T07:00:52.155Z,15.23
2019-02-16T07:03:22.496Z,15.63
2019-02-16T07:05:53.182Z,14.07
2019-02-16T07:08:23.608Z,12.67
2019-02-16T07:10:53.843Z,12.47
2019-02-16T07:13:24.246Z,15.50
2019-02-16T07:16:22.587Z,14.57
2019-02-16T07:18:57.997Z,13.00
2019-02-16T07:21:28.224Z,12.67
2019-02-16T07:23:58.498Z,13.63
2019-02-16T07:26:30.719Z,10.33
2019-02-16T07:29:00.955Z,12.07
2019-02-16T07:31:32.803Z,11.77
2019-02-16T07:34:03.032Z,13.53
2019-02-16T07:36:36.367Z,13.73
2019-02-16T07:39:07.894Z,12.10
2019-02-16T07:41:38.161Z,13.10
2019-02-16T07:44:45.546Z,11.43
2019-02-16T07:47:28.366Z,15.30
2019-02-16T07:50:35.780Z,12.23
2019-02-16T07:53:17.919Z,13.07
2019-02-16T07:56:10.418Z,12.97
2019-02-16T07:58:49.451Z,11.97
2019-02-16T08:01:34.113Z,13.30
2019-02-16T08:04:32.489Z,10.83
2019-02-16T08:07:24.866Z,13.50
2019-02-16T08:10:01.956Z,14.23
2019-02-16T08:12:44.795Z,13.80
2019-02-16T08:15:34.219Z,15.33
2019-02-16T08:18:26.176Z,12.67
2019-02-16T08:21:03.983Z,15.10
2019-02-16T08:23:41.577Z,15.43
2019-02-16T08:26:19.721Z,14.07
2019-02-16T08:29:05.902Z,14.87
2019-02-16T08:31:41.686Z,14.23
2019-02-16T08:34:30.999Z,11.47
2019-02-16T08:37:17.241Z,12.73
2019-02-16T08:40:13.221Z,13.17
2019-02-16T08:42:54.999Z,9.97
2019-02-16T08:45:44.178Z,13.93
2019-02-16T08:48:31.835Z,10.57
2019-02-16T08:51:19.432Z,12.70
2019-02-16T08:54:14.455Z,10.57
2019-02-16T08:57:21.521Z,8.87
2019-02-16T09:00:04.415Z,8.70
2019-02-16T09:02:41.359Z,10.73
2019-02-16T09:05:20.078Z,9.87
2019-02-16T09:07:56.640Z,12.93
2019-02-16T09:10:51.667Z,14.03
2019-02-16T09:13:42.899Z,11.20
2019-02-16T09:16:30.939Z,12.43
2019-02-16T09:19:18.590Z,12.40
2019-02-16T09:22:09.787Z,13.17
2019-02-16T09:24:52.444Z,10.83
2019-02-16T09:27:50.773Z,12.67
2019-02-16T09:30:39.996Z,12.83
2019-02-16T09:33:38.107Z,12.73
2019-02-16T09:36:27.373Z,10.80
2019-02-16T09:39:12.604Z,12.20
2019-02-16T09:41:49.194Z,11.30
2019-02-16T09:44:25.067Z,11.80
2019-02-16T09:47:07.728Z,13.03
2019-02-16T09:49:57.006Z,12.07
2019-02-16T09:52:44.627Z,11.00
2019-02-16T09:55:37.597Z,9.07
2019-02-16T09:58:44.793Z,10.17
2019-02-16T10:01:42.974Z,12.20
2019-02-16T10:04:38.226Z,12.03
2019-02-16T10:07:26.242Z,10.10
2019-02-16T10:10:04.599Z,11.43
2019-02-16T10:12:46.899Z,11.30
2019-02-16T10:15:34.718Z,9.63
2019-02-16T10:18:32.955Z,10.10
2019-02-16T10:21:22.471Z,11.33
2019-02-16T10:24:17.545Z,13.57
2019-02-16T10:27:02.640Z,10.47
2019-02-16T10:29:51.315Z,11.37
2019-02-16T10:32:53.070Z,11.77
2019-02-16T10:35:42.242Z,11.23
2019-02-16T10:38:34.852Z,10.87
2019-02-16T10:41:29.986Z,8.60
2019-02-16T10:44:22.250Z,9.67
2019-02-16T10:47:12.523Z,10.37
2019-02-16T10:49:56.613Z,11.73
2019-02-16T10:52:38.928Z,12.87
2019-02-16T10:55:41.001Z,12.70
2019-02-16T10:58:39.079Z,10.27
2019-02-16T11:01:34.765Z,12.77
2019-02-16T11:04:14.614Z,13.47
2019-02-16T11:07:12.749Z,10.73
2019-02-16T11:09:48.545Z,11.23
2019-02-16T11:12:43.937Z,14.20
2019-02-16T11:15:52.040Z,13.87
2019-02-16T11:18:44.355Z,11.27
2019-02-16T11:21:33.761Z,13.63
2019-02-16T11:24:09.741Z,11.67
2019-02-16T11:27:02.028Z,15.70
2019-02-16T11:29:50.079Z,12.50
2019-02-16T11:32:29.418Z,11.87
2019-02-16T11:35:29.110Z,11.27
2019-02-16T11:38:17.066Z,12.90
2019-02-16T11:40:59.697Z,11.80
2019-02-16T11:43:38.445Z,11.93
2019-02-16T11:46:26.443Z,13.37
2019-02-16T11:49:08.347Z,11.60
2019-02-16T11:52:18.864Z,12.27
2019-02-16T11:55:10.975Z,12.53
2019-02-16T11:57:58.563Z,13.33
2019-02-16T12:00:36.152Z,10.33
2019-02-16T12:03:28.540Z,13.73
2019-02-16T12:06:35.846Z,11.23
2019-02-16T12:09:36.162Z,14.53
2019-02-16T12:12:33.694Z,13.03
2019-02-16T12:15:19.537Z,13.83
2019-02-16T12:18:07.476Z,12.90
2019-02-16T12:21:00.958Z,11.90
2019-02-16T12:23:55.959Z,12.50
2019-02-16T12:27:03.440Z,12.73
2019-02-16T12:29:42.190Z,12.07
2019-02-16T12:32:18.268Z,13.97
2019-02-16T12:35:22.947Z,12.70
2019-02-16T12:37:59.607Z,11.47
2019-02-16T12:40:36.249Z,14.80
2019-02-16T12:43:25.525Z,13.63
2019-02-16T12:46:14.774Z,15.40
2019-02-16T12:49:03.056Z,16.30
2019-02-16T12:51:40.066Z,17.23
2019-02-16T12:54:32.360Z,11.87
2019-02-16T12:57:17.795Z,12.87
2019-02-16T13:00:10.241Z,16.13
2019-02-16T13:03:02.578Z,15.43
2019-02-16T13:06:07.932Z,14.03
2019-02-16T13:08:48.870Z,12.87
2019-02-16T13:11:39.376Z,13.30
2019-02-16T13:14:22.225Z,13.57
2019-02-16T13:17:20.735Z,11.70
2019-02-16T13:20:08.807Z,12.73
2019-02-16T13:23:03.524Z,11.73
2019-02-16T13:25:52.757Z,10.63
2019-02-16T13:28:30.957Z,12.57
2019-02-16T13:31:29.075Z,13.07
2019-02-16T13:34:24.624Z,14.00
2019-02-16T13:37:19.285Z,14.03
2019-02-16T13:40:08.741Z,12.47
2019-02-16T13:42:44.742Z,14.23
2019-02-16T13:45:34.042Z,13.17
2019-02-16T13:48:18.277Z,12.37
2019-02-16T13:50:58.094Z,12.50
2019-02-16T13:53:35.995Z,14.90
2019-02-16T13:56:23.647Z,10.03
2019-02-16T13:59:11.267Z,12.07
2019-02-16T14:01:52.758Z,12.27
2019-02-16T14:04:47.954Z,14.80
2019-02-16T14:07:40.111Z,11.00
2019-02-16T14:10:20.328Z,11.90
2019-02-16T14:13:02.981Z,14.00
2019-02-16T14:16:00.371Z,15.47
2019-02-16T14:18:32.217Z,12.90
2019-02-16T14:21:02.523Z,13.87
2019-02-16T14:23:32.766Z,11.97
2019-02-16T14:26:03.291Z,11.73
2019-02-16T14:28:33.667Z,12.40
2019-02-16T14:31:03.960Z,12.67
2019-02-16T14:33:34.182Z,11.33
2019-02-16T14:36:04.487Z,13.60
2019-02-16T14:38:42.804Z,12.90
2019-02-16T14:41:13.220Z,14.63
2019-02-16T14:43:43.528Z,14.53
2019-02-16T14:46:13.847Z,11.90
2019-02-16T14:48:44.075Z,12.87
2019-02-16T14:51:15.546Z,11.80
2019-02-16T14:53:47.156Z,12.80
2019-02-16T14:56:19.080Z,11.77
2019-02-16T14:59:09.074Z,12.97
2019-02-16T15:01:39.442Z,12.07
2019-02-16T15:04:09.800Z,11.53
2019-02-16T15:06:40.166Z,10.83
2019-02-16T15:09:11.116Z,14.03
2019-02-16T15:11:41.473Z,12.30
2019-02-16T15:14:11.818Z,13.83
2019-02-16T15:16:42.430Z,12.07
2019-02-16T15:19:12.822Z,11.10
2019-02-16T15:21:43.246Z,11.63
2019-02-16T15:24:13.647Z,13.80
2019-02-16T15:26:43.906Z,9.90
2019-02-16T15:29:14.257Z,11.03
2019-02-16T15:31:44.644Z,13.23
2019-02-16T15:34:14.986Z,15.70
2019-02-16T15:36:45.252Z,12.57
2019-02-16T15:39:15.587Z,12.87
2019-02-16T15:41:45.950Z,12.00
2019-02-16T15:44:16.316Z,13.27
2019-02-16T15:46:46.678Z,12.27
2019-02-16T15:49:18.171Z,13.23
2019-02-16T15:51:48.418Z,14.27
2019-02-16T15:54:19.666Z,18.13
2019-02-16T15:56:51.037Z,11.97
2019-02-16T15:59:21.476Z,12.97
2019-02-16T16:01:51.783Z,15.13
2019-02-16T16:04:22.382Z,15.50
2019-02-16T16:06:52.762Z,12.67
2019-02-16T16:09:50.869Z,12.97
2019-02-16T16:12:38.759Z,13.33
2019-02-16T16:15:22.761Z,13.87
2019-02-16T16:18:24.051Z,10.67
2019-02-16T16:21:12.081Z,14.10
2019-02-16T16:24:02.681Z,13.07
2019-02-16T16:26:57.778Z,13.73
2019-02-16T16:29:42.219Z,10.97
2019-02-16T16:32:23.652Z,18.60
2019-02-16T16:35:11.633Z,14.03
2019-02-16T16:37:59.450Z,12.33
2019-02-16T16:40:48.768Z,16.20
2019-02-16T16:43:36.547Z,16.33
2019-02-16T16:46:24.861Z,14.67
2019-02-16T16:49:14.111Z,15.63
2019-02-16T16:52:04.957Z,17.37
2019-02-16T16:55:00.300Z,12.83
2019-02-16T16:57:55.707Z,16.13
2019-02-16T17:00:43.392Z,15.33
2019-02-16T17:03:32.722Z,15.20
2019-02-16T17:06:24.677Z,15.50
2019-02-16T17:09:19.959Z,14.57
2019-02-16T17:12:12.430Z,12.93
2019-02-16T17:14:59.956Z,14.50
2019-02-16T17:17:55.032Z,14.67
2019-02-16T17:20:42.984Z,15.03
2019-02-16T17:23:22.236Z,16.13
2019-02-16T17:26:03.043Z,20.70
2019-02-16T17:28:52.369Z,15.87
2019-02-16T17:31:41.665Z,13.93
2019-02-16T17:34:48.853Z,12.83
2019-02-16T17:37:50.345Z,18.37
2019-02-16T17:40:38.128Z,14.00
2019-02-16T17:43:24.642Z,15.03
2019-02-16T17:46:09.947Z,14.87
2019-02-16T17:48:59.253Z,17.67
2019-02-16T17:51:48.473Z,19.93
2019-02-16T17:54:39.119Z,18.47
2019-02-16T17:57:26.827Z,18.23
2019-02-16T18:00:25.254Z,19.73
2019-02-16T18:03:11.882Z,17.17
2019-02-16T18:06:06.840Z,16.77
2019-02-16T18:08:58.365Z,16.37
2019-02-16T18:11:45.799Z,17.30
2019-02-16T18:14:33.611Z,19.03
2019-02-16T18:17:27.636Z,18.73
2019-02-16T18:20:25.817Z,17.97
2019-02-16T18:23:04.764Z,17.03
2019-02-16T18:25:54.160Z,18.67
2019-02-16T18:28:34.345Z,18.03
2019-02-16T18:31:23.372Z,17.33
2019-02-16T18:34:08.930Z,22.80
2019-02-16T18:37:10.306Z,20.17
2019-02-16T18:40:11.826Z,18.73
2019-02-16T18:42:59.692Z,19.10
2019-02-16T18:45:40.105Z,17.43
2019-02-16T18:48:24.075Z,19.43
2019-02-16T18:51:18.597Z,20.27
2019-02-16T18:54:16.944Z,16.87
2019-02-16T18:57:09.238Z,18.97
2019-02-16T18:59:47.102Z,14.77
2019-02-16T19:02:28.713Z,15.40
2019-02-16T19:05:18.424Z,19.67
2019-02-16T19:07:59.988Z,18.30
2019-02-16T19:10:49.212Z,19.37
2019-02-16T19:13:27.261Z,15.40
2019-02-16T19:16:16.540Z,17.77
2019-02-16T19:19:09.570Z,16.93
2019-02-16T19:21:50.322Z,14.27
2019-02-16T19:24:36.750Z,16.10
2019-02-16T19:27:24.752Z,18.20
2019-02-16T19:30:22.825Z,17.07
2019-02-16T19:33:11.628Z,16.17
2019-02-16T19:36:03.791Z,20.30
2019-02-16T19:38:58.909Z,20.80
2019-02-16T19:42:00.162Z,19.70
2019-02-16T19:44:40.691Z,18.57
2019-02-16T19:47:29.007Z,20.83
2019-02-16T19:50:18.186Z,18.67
2019-02-16T19:53:02.831Z,17.93
2019-02-16T19:55:57.882Z,18.50
2019-02-16T19:58:45.261Z,17.90
2019-02-16T20:01:37.564Z,18.60
2019-02-16T20:04:16.445Z,21.13
2019-02-16T20:07:14.770Z,19.90
2019-02-16T20:10:09.946Z,20.93
2019-02-16T20:13:05.230Z,17.97
2019-02-16T20:16:03.798Z,21.30
2019-02-16T20:18:53.869Z,22.97
2019-02-16T20:21:38.095Z,23.20
2019-02-16T20:24:27.957Z,22.73
2019-02-16T20:27:36.998Z,22.73
2019-02-16T20:30:21.088Z,18.57
2019-02-16T20:33:08.738Z,22.40
2019-02-16T20:36:03.764Z,19.70
2019-02-16T20:38:47.820Z,19.27
2019-02-16T20:41:43.362Z,18.93
2019-02-16T20:44:35.657Z,24.53
2019-02-16T20:47:13.319Z,21.17
2019-02-16T20:50:05.318Z,24.67
2019-02-16T20:53:09.430Z,24.57
2019-02-16T20:56:16.891Z,22.43
2019-02-16T20:59:04.785Z,24.03
2019-02-16T21:01:53.196Z,23.80
2019-02-16T21:04:40.844Z,23.73
2019-02-16T21:07:27.853Z,23.73
2019-02-16T21:10:15.605Z,22.80
2019-02-16T21:13:10.924Z,21.33
2019-02-16T21:16:18.692Z,23.03
2019-02-16T21:19:02.855Z,21.07
2019-02-16T21:21:45.765Z,22.90
2019-02-16T21:24:35.168Z,23.00
2019-02-16T21:27:22.248Z,22.23
2019-02-16T21:30:05.100Z,23.03
2019-02-16T21:32:48.954Z,21.13
2019-02-16T21:35:35.073Z,24.33
2019-02-16T21:38:27.241Z,22.07
2019-02-16T21:41:06.330Z,21.63
2019-02-16T21:43:55.547Z,24.60
2019-02-16T21:46:35.587Z,22.73
2019-02-16T21:49:27.862Z,22.50
2019-02-16T21:52:15.444Z,22.27
2019-02-16T21:54:57.993Z,22.63
2019-02-16T21:57:38.352Z,23.13
2019-02-16T22:00:26.847Z,20.67
2019-02-16T22:03:14.741Z,24.80
2019-02-16T22:05:53.240Z,23.33
2019-02-16T22:08:55.110Z,23.03
2019-02-16T22:11:32.026Z,23.97
2019-02-16T22:14:02.382Z,22.57
2019-02-16T22:16:32.839Z,24.93
2019-02-16T22:19:03.435Z,24.90
2019-02-16T22:21:33.763Z,28.27
2019-02-16T22:24:04.830Z,20.60
2019-02-16T22:26:35.137Z,23.70
2019-02-16T22:29:05.464Z,18.80
2019-02-16T22:31:35.747Z,22.87
2019-02-16T22:34:06.068Z,23.00
2019-02-16T22:36:36.451Z,22.27
2019-02-16T22:39:08.945Z,22.70
2019-02-16T22:41:39.250Z,24.17
2019-02-16T22:44:09.755Z,21.17
2019-02-16T22:46:40.012Z,23.07
2019-02-16T22:49:10.694Z,25.03
2019-02-16T22:51:40.956Z,20.93
2019-02-16T22:54:11.241Z,26.27
2019-02-16T22:56:41.514Z,24.27
2019-02-16T22:59:11.783Z,27.60
2019-02-16T23:01:44.008Z,26.47
2019-02-16T23:04:14.252Z,23.00
2019-02-16T23:06:44.721Z,25.43
2019-02-16T23:09:30.160Z,23.93
2019-02-16T23:12:00.468Z,26.87
2019-02-16T23:14:30.928Z,25.77
2019-02-16T23:17:01.218Z,23.77
2019-02-16T23:19:32.490Z,26.10
2019-02-16T23:22:02.823Z,26.20
2019-02-16T23:24:33.119Z,24.70
2019-02-16T23:27:03.597Z,23.63
2019-02-16T23:29:33.864Z,23.30
2019-02-16T23:32:05.722Z,23.30
2019-02-16T23:34:36.093Z,26.10
2019-02-16T23:37:06.398Z,21.17
2019-02-16T23:39:38.270Z,23.97
2019-02-16T23:42:08.550Z,23.77
2019-02-16T23:44:38.940Z,26.40
2019-02-16T23:47:09.255Z,22.83
2019-02-16T23:49:39.491Z,24.83
2019-02-16T23:52:09.725Z,23.57
2019-02-16T23:54:40.031Z,24.47
2019-02-16T23:57:10.565Z,21.97
2019-02-16T23:59:41.032Z,25.67
